createdAt,value
2023-05-13T00:06:57.127Z,12.60
2023-05-13T00:13:57.710Z,12.50
2023-05-13T00:20:58.002Z,12.50
2023-05-13T00:27:58.455Z,12.50
2023-05-13T00:34:58.875Z,12.50
2023-05-13T00:41:59.468Z,12.40
2023-05-13T00:49:00.970Z,12.30
2023-05-13T00:56:01.852Z,12.20
2023-05-13T01:03:24.130Z,12.10
2023-05-13T01:11:00.617Z,12.00
2023-05-13T01:18:20.304Z,11.90
2023-05-13T01:25:20.355Z,11.90
2023-05-13T01:32:22.835Z,11.70
2023-05-13T01:39:24.245Z,11.70
2023-05-13T01:46:27.221Z,11.60
2023-05-13T01:53:27.450Z,11.40
2023-05-13T02:00:27.712Z,11.40
2023-05-13T02:07:28.169Z,11.30
2023-05-13T02:14:28.844Z,11.20
2023-05-13T02:21:29.766Z,11.10
2023-05-13T02:28:29.928Z,11.10
2023-05-13T02:35:30.612Z,11.10
2023-05-13T02:42:33.763Z,11.00
2023-05-13T02:49:35.275Z,11.00
2023-05-13T02:56:36.118Z,10.90
2023-05-13T03:03:36.418Z,10.80
2023-05-13T03:10:36.901Z,10.80
2023-05-13T03:17:37.440Z,10.80
2023-05-13T03:24:38.130Z,10.70
2023-05-13T03:31:38.641Z,10.70
2023-05-13T03:38:39.395Z,10.70
2023-05-13T03:45:39.816Z,10.70
2023-05-13T03:52:46.327Z,10.70
2023-05-13T03:59:48.223Z,10.80
2023-05-13T04:06:48.611Z,10.80
2023-05-13T04:13:49.069Z,10.70
2023-05-13T04:20:49.442Z,10.70
2023-05-13T04:27:49.683Z,10.70
2023-05-13T04:35:01.864Z,10.80
2023-05-13T04:42:04.345Z,10.70
2023-05-13T04:49:06.650Z,10.80
2023-05-13T04:56:08.175Z,11.00
2023-05-13T05:03:08.731Z,11.10
2023-05-13T05:10:09.502Z,11.20
2023-05-13T05:17:14.539Z,11.30
2023-05-13T05:24:15.004Z,11.40
2023-05-13T05:31:15.918Z,11.60
2023-05-13T05:38:16.526Z,11.90
2023-05-13T05:45:18.588Z,12.10
2023-05-13T05:52:19.514Z,12.50
2023-05-13T05:59:19.944Z,12.70
2023-05-13T06:06:20.247Z,13.00
2023-05-13T06:13:20.616Z,13.30
2023-05-13T06:20:21.219Z,13.70
2023-05-13T06:27:22.920Z,14.10
2023-05-13T06:34:23.408Z,14.50
2023-05-13T06:41:23.908Z,15.00
2023-05-13T06:48:26.139Z,15.40
2023-05-13T06:55:27.086Z,15.70
2023-05-13T07:02:27.414Z,15.90
2023-05-13T07:09:27.777Z,16.10
2023-05-13T07:16:28.118Z,16.30
2023-05-13T07:23:28.488Z,16.50
2023-05-13T07:30:28.903Z,16.70
2023-05-13T07:37:29.029Z,16.90
2023-05-13T07:44:30.133Z,17.00
2023-05-13T07:51:30.984Z,17.20
2023-05-13T07:58:31.115Z,17.20
2023-05-13T08:05:31.453Z,17.30
2023-05-13T08:12:31.938Z,17.30
2023-05-13T08:19:32.438Z,17.20
2023-05-13T08:26:33.733Z,17.40
2023-05-13T08:33:34.389Z,17.30
2023-05-13T08:40:34.865Z,17.40
2023-05-13T08:47:52.979Z,17.60
2023-05-13T08:54:54.230Z,17.80
2023-05-13T09:01:56.288Z,17.90
2023-05-13T09:08:57.010Z,18.00
2023-05-13T09:15:57.393Z,18.10
2023-05-13T09:23:00.269Z,18.40
2023-05-13T09:30:00.754Z,18.60
2023-05-13T09:37:00.830Z,18.90
2023-05-13T09:44:03.955Z,19.00
2023-05-13T09:51:05.555Z,19.30
2023-05-13T09:58:12.575Z,19.40
2023-05-13T10:05:13.223Z,19.70
2023-05-13T10:12:14.822Z,19.80
2023-05-13T10:19:16.530Z,19.90
2023-05-13T10:26:17.075Z,20.00
2023-05-13T10:33:18.505Z,20.10
2023-05-13T10:40:37.459Z,20.40
2023-05-13T10:47:38.319Z,20.80
2023-05-13T10:54:40.463Z,21.00
2023-05-13T11:01:46.572Z,21.10
2023-05-13T11:08:49.170Z,21.50
2023-05-13T11:15:53.883Z,21.90
2023-05-13T11:22:53.972Z,22.30
2023-05-13T11:29:56.227Z,22.50
2023-05-13T11:37:09.361Z,22.50
2023-05-13T11:44:11.803Z,22.00
2023-05-13T11:51:12.314Z,21.10
2023-05-13T11:58:15.407Z,20.80
2023-05-13T12:05:16.014Z,21.10
2023-05-13T12:12:17.505Z,21.00
2023-05-13T12:19:19.778Z,20.80
2023-05-13T12:26:19.860Z,20.80
2023-05-13T12:33:22.697Z,20.90
2023-05-13T12:40:26.908Z,20.90
2023-05-13T12:47:27.106Z,20.80
2023-05-13T12:54:27.733Z,20.90
2023-05-13T13:01:28.440Z,21.10
2023-05-13T13:08:30.519Z,21.30
2023-05-13T13:15:31.340Z,21.40
2023-05-13T13:22:31.920Z,21.40
2023-05-13T13:29:32.374Z,21.00
2023-05-13T13:36:32.798Z,20.70
2023-05-13T13:43:32.832Z,20.70
2023-05-13T13:50:33.255Z,21.60
2023-05-13T13:57:34.217Z,23.00
2023-05-13T14:04:36.547Z,23.90
2023-05-13T14:11:37.679Z,24.60
2023-05-13T14:18:38.120Z,25.20
2023-05-13T14:25:38.795Z,25.60
2023-05-13T14:32:42.325Z,25.90
2023-05-13T14:39:42.673Z,25.00
2023-05-13T14:46:43.123Z,23.80
2023-05-13T14:53:43.648Z,23.40
2023-05-13T15:00:44.433Z,22.90
2023-05-13T15:07:44.995Z,22.00
2023-05-13T15:14:52.703Z,22.10
2023-05-13T15:21:53.369Z,23.00
2023-05-13T15:28:54.068Z,23.70
2023-05-13T15:35:54.626Z,23.80
2023-05-13T15:42:55.654Z,23.50
2023-05-13T15:49:55.791Z,22.80
2023-05-13T15:56:58.765Z,21.70
2023-05-13T16:03:58.906Z,21.20
2023-05-13T16:10:59.278Z,20.70
2023-05-13T16:17:59.609Z,20.10
2023-05-13T16:25:01.926Z,19.70
2023-05-13T16:32:02.117Z,19.50
2023-05-13T16:39:02.574Z,19.50
2023-05-13T16:46:03.075Z,19.40
2023-05-13T16:53:03.589Z,19.40
2023-05-13T17:00:04.612Z,19.40
2023-05-13T17:07:06.058Z,19.60
2023-05-13T17:14:06.386Z,19.70
2023-05-13T17:21:06.930Z,19.90
2023-05-13T17:28:08.015Z,19.90
2023-05-13T17:35:08.817Z,19.90
2023-05-13T17:42:09.076Z,19.90
2023-05-13T17:49:09.528Z,19.80
2023-05-13T17:56:10.772Z,19.30
2023-05-13T18:03:11.280Z,19.40
2023-05-13T18:10:11.632Z,19.50
2023-05-13T18:17:12.024Z,19.70
2023-05-13T18:24:12.463Z,19.50
2023-05-13T18:31:12.979Z,19.10
2023-05-13T18:38:13.487Z,18.70
2023-05-13T18:45:14.249Z,18.30
2023-05-13T18:52:14.562Z,17.90
2023-05-13T18:59:15.236Z,17.70
2023-05-13T19:06:15.775Z,17.40
2023-05-13T19:13:19.581Z,17.10
2023-05-13T19:20:20.157Z,16.80
2023-05-13T19:27:21.499Z,16.70
2023-05-13T19:34:21.519Z,16.50
2023-05-13T19:41:22.419Z,16.40
2023-05-13T19:48:22.789Z,16.30
2023-05-13T19:55:23.259Z,16.00
2023-05-13T20:02:23.706Z,15.90
2023-05-13T20:09:24.043Z,15.80
2023-05-13T20:16:24.508Z,15.60
2023-05-13T20:23:25.118Z,15.30
2023-05-13T20:30:25.747Z,15.20
2023-05-13T20:37:26.920Z,15.00
2023-05-13T20:44:27.193Z,14.80
2023-05-13T20:51:27.549Z,14.70
2023-05-13T20:58:28.000Z,14.50
2023-05-13T21:05:28.384Z,14.30
2023-05-13T21:12:28.808Z,14.10
2023-05-13T21:19:29.262Z,14.00
2023-05-13T21:26:29.541Z,13.90
2023-05-13T21:33:30.055Z,13.80
2023-05-13T21:40:30.153Z,13.70
2023-05-13T21:47:30.796Z,13.60
2023-05-13T21:54:31.485Z,13.50
2023-05-13T22:01:31.938Z,13.30
2023-05-13T22:08:33.352Z,13.20
2023-05-13T22:15:33.186Z,13.00
2023-05-13T22:22:33.614Z,12.90
2023-05-13T22:29:33.813Z,12.70
2023-05-13T22:36:34.155Z,12.60
2023-05-13T22:43:34.705Z,12.60
2023-05-13T22:50:35.630Z,12.50
2023-05-13T22:57:35.706Z,12.40
2023-05-13T23:04:36.145Z,12.40
2023-05-13T23:11:36.926Z,12.30
2023-05-13T23:18:37.298Z,12.20
2023-05-13T23:25:37.636Z,12.10
2023-05-13T23:32:38.050Z,12.10
2023-05-13T23:39:38.332Z,11.90
2023-05-13T23:46:38.778Z,11.80
2023-05-13T23:53:39.063Z,11.60
